sensor_id;sensor_type;location;lat;lon;timestamp;P1;durP1;ratioP1;P2;durP2;ratioP2
49582;SDS011;36329;48.816;44.624;2022-08-06T00:00:27;3.8;;;0.9;;
49582;SDS011;36329;48.816;44.624;2022-08-06T00:03:28;2.6;;;0.9;;
49582;SDS011;36329;48.816;44.624;2022-08-06T00:06:30;4.5;;;1;;
49582;SDS011;36329;48.816;44.624;2022-08-06T00:09:31;4.3;;;0.9;;
49582;SDS011;36329;48.816;44.624;2022-08-06T00:12:33;4.5;;;0.9;;
49582;SDS011;36329;48.816;44.624;2022-08-06T00:15:35;2.9;;;1;;
49582;SDS011;36329;48.816;44.624;2022-08-06T00:18:36;7.2;;;0.9;;
49582;SDS011;36329;48.816;44.624;2022-08-06T00:21:44;4;;;0.8;;
49582;SDS011;36329;48.816;44.624;2022-08-06T00:24:46;6;;;1;;
49582;SDS011;36329;48.816;44.624;2022-08-06T00:27:47;6;;;0.9;;
49582;SDS011;36329;48.816;44.624;2022-08-06T00:30:49;4.6;;;1;;
49582;SDS011;36329;48.816;44.624;2022-08-06T00:33:51;6.4;;;0.8;;
49582;SDS011;36329;48.816;44.624;2022-08-06T00:36:58;5.6;;;1;;
49582;SDS011;36329;48.816;44.624;2022-08-06T00:39:59;4.8;;;1.1;;
49582;SDS011;36329;48.816;44.624;2022-08-06T00:43:06;4.2;;;0.8;;
49582;SDS011;36329;48.816;44.624;2022-08-06T00:46:08;3.6;;;0.8;;
49582;SDS011;36329;48.816;44.624;2022-08-06T00:49:10;4.1;;;0.9;;
49582;SDS011;36329;48.816;44.624;2022-08-06T00:52:12;2;;;0.9;;
49582;SDS011;36329;48.816;44.624;2022-08-06T00:55:14;2.8;;;0.8;;
49582;SDS011;36329;48.816;44.624;2022-08-06T00:58:16;4.7;;;1.2;;
49582;SDS011;36329;48.816;44.624;2022-08-06T01:01:17;2.8;;;0.8;;
49582;SDS011;36329;48.816;44.624;2022-08-06T01:04:19;3.6;;;0.8;;
49582;SDS011;36329;48.816;44.624;2022-08-06T01:07:20;7.8;;;1.8;;
49582;SDS011;36329;48.816;44.624;2022-08-06T01:10:22;3.1;;;0.9;;
49582;SDS011;36329;48.816;44.624;2022-08-06T01:13:23;2.1;;;0.7;;
49582;SDS011;36329;48.816;44.624;2022-08-06T01:16:27;2.4;;;0.7;;
49582;SDS011;36329;48.816;44.624;2022-08-06T01:19:41;3.3;;;0.9;;
49582;SDS011;36329;48.816;44.624;2022-08-06T01:23:00;2.9;;;0.9;;
49582;SDS011;36329;48.816;44.624;2022-08-06T01:26:18;6;;;0.9;;
49582;SDS011;36329;48.816;44.624;2022-08-06T01:29:33;4;;;0.8;;
49582;SDS011;36329;48.816;44.624;2022-08-06T01:32:40;2.3;;;0.8;;
49582;SDS011;36329;48.816;44.624;2022-08-06T01:35:49;5.7;;;0.9;;
49582;SDS011;36329;48.816;44.624;2022-08-06T01:39:01;4.2;;;1.1;;
49582;SDS011;36329;48.816;44.624;2022-08-06T01:42:04;4.3;;;0.8;;
49582;SDS011;36329;48.816;44.624;2022-08-06T01:45:09;6.7;;;0.8;;
49582;SDS011;36329;48.816;44.624;2022-08-06T01:48:26;4.1;;;1.1;;
49582;SDS011;36329;48.816;44.624;2022-08-06T01:51:30;4.2;;;1;;
49582;SDS011;36329;48.816;44.624;2022-08-06T01:54:40;3.8;;;0.8;;
49582;SDS011;36329;48.816;44.624;2022-08-06T01:57:48;3.7;;;1;;
49582;SDS011;36329;48.816;44.624;2022-08-06T02:00:54;4.1;;;0.9;;
49582;SDS011;36329;48.816;44.624;2022-08-06T02:03:56;1.9;;;0.8;;
49582;SDS011;36329;48.816;44.624;2022-08-06T02:07:01;3;;;0.8;;
49582;SDS011;36329;48.816;44.624;2022-08-06T02:10:06;2.9;;;0.8;;
49582;SDS011;36329;48.816;44.624;2022-08-06T02:13:10;2.9;;;0.9;;
49582;SDS011;36329;48.816;44.624;2022-08-06T02:16:17;3;;;1;;
49582;SDS011;36329;48.816;44.624;2022-08-06T02:19:25;3.3;;;1;;
49582;SDS011;36329;48.816;44.624;2022-08-06T02:22:28;3.4;;;0.9;;
49582;SDS011;36329;48.816;44.624;2022-08-06T02:25:32;3.4;;;0.9;;
49582;SDS011;36329;48.816;44.624;2022-08-06T02:28:36;7.1;;;0.8;;
49582;SDS011;36329;48.816;44.624;2022-08-06T02:31:39;2.8;;;0.9;;
49582;SDS011;36329;48.816;44.624;2022-08-06T02:34:41;3.1;;;1;;
49582;SDS011;36329;48.816;44.624;2022-08-06T02:37:45;3.3;;;0.8;;
49582;SDS011;36329;48.816;44.624;2022-08-06T02:40:53;3.3;;;0.9;;
49582;SDS011;36329;48.816;44.624;2022-08-06T02:44:02;3.4;;;0.9;;
49582;SDS011;36329;48.816;44.624;2022-08-06T02:47:13;4.3;;;0.9;;
49582;SDS011;36329;48.816;44.624;2022-08-06T02:50:20;8;;;0.9;;
49582;SDS011;36329;48.816;44.624;2022-08-06T02:53:36;4.4;;;0.8;;
49582;SDS011;36329;48.816;44.624;2022-08-06T02:56:44;3.8;;;0.9;;
49582;SDS011;36329;48.816;44.624;2022-08-06T02:59:49;5.5;;;1.2;;
49582;SDS011;36329;48.816;44.624;2022-08-06T03:02:59;7;;;1;;
49582;SDS011;36329;48.816;44.624;2022-08-06T03:06:04;3.3;;;0.9;;
49582;SDS011;36329;48.816;44.624;2022-08-06T03:09:08;3.7;;;1;;
49582;SDS011;36329;48.816;44.624;2022-08-06T03:12:11;3.5;;;0.9;;
49582;SDS011;36329;48.816;44.624;2022-08-06T03:15:14;4.8;;;1;;
49582;SDS011;36329;48.816;44.624;2022-08-06T03:18:18;4.1;;;1;;
49582;SDS011;36329;48.816;44.624;2022-08-06T03:21:22;5;;;1.1;;
49582;SDS011;36329;48.816;44.624;2022-08-06T03:24:25;4.6;;;1;;
49582;SDS011;36329;48.816;44.624;2022-08-06T03:27:33;2.7;;;1;;
49582;SDS011;36329;48.816;44.624;2022-08-06T03:30:42;6.5;;;1.3;;
49582;SDS011;36329;48.816;44.624;2022-08-06T03:33:45;4;;;1.3;;
49582;SDS011;36329;48.816;44.624;2022-08-06T03:36:47;5.2;;;1.6;;
49582;SDS011;36329;48.816;44.624;2022-08-06T03:39:49;3.8;;;1.2;;
49582;SDS011;36329;48.816;44.624;2022-08-06T03:42:51;5.2;;;1.1;;
49582;SDS011;36329;48.816;44.624;2022-08-06T03:45:53;3.5;;;1;;
49582;SDS011;36329;48.816;44.624;2022-08-06T03:49:02;7.5;;;1.2;;
49582;SDS011;36329;48.816;44.624;2022-08-06T03:52:12;5.5;;;1.3;;
49582;SDS011;36329;48.816;44.624;2022-08-06T03:55:22;3.4;;;1;;
49582;SDS011;36329;48.816;44.624;2022-08-06T03:58:26;5.8;;;1.1;;
49582;SDS011;36329;48.816;44.624;2022-08-06T04:01:32;5.2;;;1.3;;
49582;SDS011;36329;48.816;44.624;2022-08-06T04:04:37;5.4;;;1.2;;
49582;SDS011;36329;48.816;44.624;2022-08-06T04:07:45;5.4;;;1.1;;
49582;SDS011;36329;48.816;44.624;2022-08-06T04:10:48;5.6;;;1;;
49582;SDS011;36329;48.816;44.624;2022-08-06T04:13:52;5;;;1.1;;
49582;SDS011;36329;48.816;44.624;2022-08-06T04:16:55;6.2;;;1.2;;
49582;SDS011;36329;48.816;44.624;2022-08-06T04:19:58;5.2;;;0.9;;
49582;SDS011;36329;48.816;44.624;2022-08-06T04:23:07;4.3;;;1;;
49582;SDS011;36329;48.816;44.624;2022-08-06T04:26:09;4.3;;;1.1;;
49582;SDS011;36329;48.816;44.624;2022-08-06T04:29:15;3.3;;;0.9;;
49582;SDS011;36329;48.816;44.624;2022-08-06T04:32:19;6.2;;;0.9;;
49582;SDS011;36329;48.816;44.624;2022-08-06T04:35:33;3.1;;;1.1;;
49582;SDS011;36329;48.816;44.624;2022-08-06T04:38:38;5;;;1;;
49582;SDS011;36329;48.816;44.624;2022-08-06T04:41:41;4.9;;;1.2;;
49582;SDS011;36329;48.816;44.624;2022-08-06T04:44:43;5.3;;;1.5;;
49582;SDS011;36329;48.816;44.624;2022-08-06T04:47:50;4.2;;;1;;
49582;SDS011;36329;48.816;44.624;2022-08-06T04:50:53;4.7;;;1.1;;
49582;SDS011;36329;48.816;44.624;2022-08-06T04:53:55;5.5;;;1.2;;
49582;SDS011;36329;48.816;44.624;2022-08-06T04:56:57;6;;;1;;
49582;SDS011;36329;48.816;44.624;2022-08-06T04:59:59;6.4;;;1.3;;
49582;SDS011;36329;48.816;44.624;2022-08-06T05:06:16;5;;;1.2;;
49582;SDS011;36329;48.816;44.624;2022-08-06T05:09:27;5;;;1;;
49582;SDS011;36329;48.816;44.624;2022-08-06T05:12:31;6.1;;;1.2;;
49582;SDS011;36329;48.816;44.624;2022-08-06T05:15:40;4.5;;;1.1;;
49582;SDS011;36329;48.816;44.624;2022-08-06T05:18:46;4.7;;;1.2;;
49582;SDS011;36329;48.816;44.624;2022-08-06T05:21:51;5.4;;;1.1;;
49582;SDS011;36329;48.816;44.624;2022-08-06T05:25:01;7.5;;;1.1;;
49582;SDS011;36329;48.816;44.624;2022-08-06T05:28:06;6.3;;;1.1;;
49582;SDS011;36329;48.816;44.624;2022-08-06T05:31:08;6.1;;;1.2;;
49582;SDS011;36329;48.816;44.624;2022-08-06T05:34:10;5.9;;;1.4;;
49582;SDS011;36329;48.816;44.624;2022-08-06T05:37:13;8.1;;;1.1;;
49582;SDS011;36329;48.816;44.624;2022-08-06T05:40:14;4.7;;;1.1;;
49582;SDS011;36329;48.816;44.624;2022-08-06T05:43:22;5.5;;;0.9;;
49582;SDS011;36329;48.816;44.624;2022-08-06T05:46:24;10;;;1.3;;
49582;SDS011;36329;48.816;44.624;2022-08-06T05:49:31;2.9;;;1;;
49582;SDS011;36329;48.816;44.624;2022-08-06T05:52:46;4.5;;;1.2;;
49582;SDS011;36329;48.816;44.624;2022-08-06T05:55:54;7.2;;;1.3;;
49582;SDS011;36329;48.816;44.624;2022-08-06T05:58:58;5.4;;;1.1;;
49582;SDS011;36329;48.816;44.624;2022-08-06T06:02:08;7;;;1.2;;
49582;SDS011;36329;48.816;44.624;2022-08-06T06:05:12;9;;;1.3;;
49582;SDS011;36329;48.816;44.624;2022-08-06T06:08:20;6.9;;;1;;
49582;SDS011;36329;48.816;44.624;2022-08-06T06:11:22;4.4;;;1.1;;
49582;SDS011;36329;48.816;44.624;2022-08-06T06:14:27;5.3;;;0.9;;
49582;SDS011;36329;48.816;44.624;2022-08-06T06:17:39;5.7;;;1.1;;
49582;SDS011;36329;48.816;44.624;2022-08-06T06:20:49;7.5;;;1.1;;
49582;SDS011;36329;48.816;44.624;2022-08-06T06:24:00;6.4;;;1.3;;
49582;SDS011;36329;48.816;44.624;2022-08-06T06:27:08;5.5;;;1;;
49582;SDS011;36329;48.816;44.624;2022-08-06T06:30:16;8.7;;;1.2;;
49582;SDS011;36329;48.816;44.624;2022-08-06T06:33:36;8;;;1.1;;
49582;SDS011;36329;48.816;44.624;2022-08-06T06:36:43;8.3;;;1.6;;
49582;SDS011;36329;48.816;44.624;2022-08-06T06:39:57;10.6;;;2.5;;
49582;SDS011;36329;48.816;44.624;2022-08-06T06:43:12;7.8;;;1.3;;
49582;SDS011;36329;48.816;44.624;2022-08-06T06:46:20;8.8;;;2;;
49582;SDS011;36329;48.816;44.624;2022-08-06T06:49:32;6.8;;;1.6;;
49582;SDS011;36329;48.816;44.624;2022-08-06T06:52:40;6.2;;;1.4;;
49582;SDS011;36329;48.816;44.624;2022-08-06T06:55:44;7.4;;;1.7;;
49582;SDS011;36329;48.816;44.624;2022-08-06T06:58:49;5.3;;;1.4;;
49582;SDS011;36329;48.816;44.624;2022-08-06T07:01:59;6.8;;;1.5;;
49582;SDS011;36329;48.816;44.624;2022-08-06T07:05:08;10;;;1.6;;
49582;SDS011;36329;48.816;44.624;2022-08-06T07:08:11;8.7;;;2;;
49582;SDS011;36329;48.816;44.624;2022-08-06T07:11:17;5.4;;;2;;
49582;SDS011;36329;48.816;44.624;2022-08-06T07:14:23;5.9;;;1.5;;
49582;SDS011;36329;48.816;44.624;2022-08-06T07:17:27;8;;;1.3;;
49582;SDS011;36329;48.816;44.624;2022-08-06T07:20:35;5.9;;;1.2;;
49582;SDS011;36329;48.816;44.624;2022-08-06T07:23:37;6;;;1.1;;
49582;SDS011;36329;48.816;44.624;2022-08-06T07:26:39;7.7;;;1.5;;
49582;SDS011;36329;48.816;44.624;2022-08-06T07:29:49;5;;;0.9;;
49582;SDS011;36329;48.816;44.624;2022-08-06T07:32:52;6.8;;;1.1;;
49582;SDS011;36329;48.816;44.624;2022-08-06T07:35:53;4.3;;;1.1;;
49582;SDS011;36329;48.816;44.624;2022-08-06T07:38:57;5.7;;;1.3;;
49582;SDS011;36329;48.816;44.624;2022-08-06T07:42:06;5.1;;;1.1;;
49582;SDS011;36329;48.816;44.624;2022-08-06T07:45:16;6.1;;;1.4;;
49582;SDS011;36329;48.816;44.624;2022-08-06T07:48:20;4.2;;;1.3;;
49582;SDS011;36329;48.816;44.624;2022-08-06T07:51:26;4.9;;;1.1;;
49582;SDS011;36329;48.816;44.624;2022-08-06T07:54:31;4.8;;;0.9;;
49582;SDS011;36329;48.816;44.624;2022-08-06T07:57:34;2.5;;;0.9;;
49582;SDS011;36329;48.816;44.624;2022-08-06T08:00:36;4.7;;;0.7;;
49582;SDS011;36329;48.816;44.624;2022-08-06T08:03:44;3.1;;;0.6;;
49582;SDS011;36329;48.816;44.624;2022-08-06T08:06:47;5.3;;;0.8;;
49582;SDS011;36329;48.816;44.624;2022-08-06T08:09:49;5.6;;;0.9;;
49582;SDS011;36329;48.816;44.624;2022-08-06T08:12:57;4.6;;;0.7;;
49582;SDS011;36329;48.816;44.624;2022-08-06T08:15:59;3.7;;;0.8;;
49582;SDS011;36329;48.816;44.624;2022-08-06T08:22:24;6.9;;;3.4;;
49582;SDS011;36329;48.816;44.624;2022-08-06T08:25:25;5;;;2.1;;
49582;SDS011;36329;48.816;44.624;2022-08-06T08:28:27;3.9;;;0.6;;
49582;SDS011;36329;48.816;44.624;2022-08-06T08:31:35;2.6;;;0.7;;
49582;SDS011;36329;48.816;44.624;2022-08-06T08:34:37;12.2;;;1.2;;
49582;SDS011;36329;48.816;44.624;2022-08-06T08:37:43;15.7;;;1.9;;
49582;SDS011;36329;48.816;44.624;2022-08-06T08:40:47;7.6;;;1.2;;
49582;SDS011;36329;48.816;44.624;2022-08-06T08:43:55;4.3;;;1.4;;
49582;SDS011;36329;48.816;44.624;2022-08-06T08:47:02;4.6;;;0.6;;
49582;SDS011;36329;48.816;44.624;2022-08-06T08:50:10;2.8;;;0.8;;
49582;SDS011;36329;48.816;44.624;2022-08-06T08:53:20;3.3;;;0.9;;
49582;SDS011;36329;48.816;44.624;2022-08-06T08:56:27;2.8;;;0.6;;
49582;SDS011;36329;48.816;44.624;2022-08-06T08:59:35;4.1;;;0.8;;
49582;SDS011;36329;48.816;44.624;2022-08-06T09:02:37;4.4;;;1;;
49582;SDS011;36329;48.816;44.624;2022-08-06T09:05:40;4;;;0.7;;
49582;SDS011;36329;48.816;44.624;2022-08-06T09:08:41;6.2;;;0.9;;
49582;SDS011;36329;48.816;44.624;2022-08-06T09:11:44;8.4;;;1.1;;
49582;SDS011;36329;48.816;44.624;2022-08-06T09:14:46;2.9;;;0.8;;
49582;SDS011;36329;48.816;44.624;2022-08-06T09:17:48;4.5;;;0.7;;
49582;SDS011;36329;48.816;44.624;2022-08-06T09:20:50;3;;;0.7;;
49582;SDS011;36329;48.816;44.624;2022-08-06T09:23:52;4.6;;;0.7;;
49582;SDS011;36329;48.816;44.624;2022-08-06T09:27:02;4.6;;;0.7;;
49582;SDS011;36329;48.816;44.624;2022-08-06T09:30:06;2.8;;;0.6;;
49582;SDS011;36329;48.816;44.624;2022-08-06T09:33:11;6.5;;;2.8;;
49582;SDS011;36329;48.816;44.624;2022-08-06T09:36:13;4.5;;;1;;
49582;SDS011;36329;48.816;44.624;2022-08-06T09:39:15;3.9;;;0.9;;
49582;SDS011;36329;48.816;44.624;2022-08-06T09:42:16;3;;;0.8;;
49582;SDS011;36329;48.816;44.624;2022-08-06T09:45:38;5.3;;;1;;
49582;SDS011;36329;48.816;44.624;2022-08-06T09:48:55;4.6;;;0.9;;
49582;SDS011;36329;48.816;44.624;2022-08-06T09:55:27;3.5;;;0.7;;
49582;SDS011;36329;48.816;44.624;2022-08-06T09:58:31;4.4;;;0.7;;
49582;SDS011;36329;48.816;44.624;2022-08-06T10:01:38;3.5;;;0.7;;
49582;SDS011;36329;48.816;44.624;2022-08-06T10:04:46;4.6;;;1;;
49582;SDS011;36329;48.816;44.624;2022-08-06T10:08:01;5.6;;;0.8;;
49582;SDS011;36329;48.816;44.624;2022-08-06T10:11:05;3.8;;;0.7;;
49582;SDS011;36329;48.816;44.624;2022-08-06T10:14:19;5.1;;;0.7;;
49582;SDS011;36329;48.816;44.624;2022-08-06T10:17:23;3.4;;;1.1;;
49582;SDS011;36329;48.816;44.624;2022-08-06T10:20:25;4.5;;;0.8;;
49582;SDS011;36329;48.816;44.624;2022-08-06T10:23:28;6.9;;;0.9;;
49582;SDS011;36329;48.816;44.624;2022-08-06T10:26:31;3.6;;;0.8;;
49582;SDS011;36329;48.816;44.624;2022-08-06T10:29:35;2.9;;;1;;
49582;SDS011;36329;48.816;44.624;2022-08-06T10:32:43;7.7;;;0.9;;
49582;SDS011;36329;48.816;44.624;2022-08-06T10:35:50;7;;;1;;
49582;SDS011;36329;48.816;44.624;2022-08-06T10:39:00;5.6;;;2.7;;
49582;SDS011;36329;48.816;44.624;2022-08-06T10:42:03;5.9;;;2.6;;
49582;SDS011;36329;48.816;44.624;2022-08-06T10:45:06;3.7;;;1.1;;
49582;SDS011;36329;48.816;44.624;2022-08-06T10:48:09;6.1;;;0.8;;
49582;SDS011;36329;48.816;44.624;2022-08-06T10:51:12;2.4;;;0.8;;
49582;SDS011;36329;48.816;44.624;2022-08-06T10:54:14;5.5;;;0.9;;
49582;SDS011;36329;48.816;44.624;2022-08-06T10:57:17;5.5;;;0.7;;
49582;SDS011;36329;48.816;44.624;2022-08-06T11:00:20;3.4;;;0.8;;
49582;SDS011;36329;48.816;44.624;2022-08-06T11:03:22;2.7;;;0.7;;
49582;SDS011;36329;48.816;44.624;2022-08-06T11:06:41;7.3;;;1;;
49582;SDS011;36329;48.816;44.624;2022-08-06T11:10:00;5.9;;;1;;
49582;SDS011;36329;48.816;44.624;2022-08-06T11:13:17;2.9;;;0.8;;
49582;SDS011;36329;48.816;44.624;2022-08-06T11:16:27;3.3;;;1;;
49582;SDS011;36329;48.816;44.624;2022-08-06T11:19:39;2.5;;;0.8;;
49582;SDS011;36329;48.816;44.624;2022-08-06T11:22:42;4.8;;;1;;
49582;SDS011;36329;48.816;44.624;2022-08-06T11:25:50;2.7;;;1;;
49582;SDS011;36329;48.816;44.624;2022-08-06T11:28:57;3.4;;;0.9;;
49582;SDS011;36329;48.816;44.624;2022-08-06T11:32:00;4.2;;;0.9;;
49582;SDS011;36329;48.816;44.624;2022-08-06T11:42:03;5.1;;;0.9;;
49582;SDS011;36329;48.816;44.624;2022-08-06T11:45:05;4.5;;;1;;
49582;SDS011;36329;48.816;44.624;2022-08-06T11:48:07;5.1;;;1;;
49582;SDS011;36329;48.816;44.624;2022-08-06T11:54:36;2.9;;;1.1;;
49582;SDS011;36329;48.816;44.624;2022-08-06T12:04:52;4.3;;;0.9;;
49582;SDS011;36329;48.816;44.624;2022-08-06T12:11:21;6.3;;;1.3;;
49582;SDS011;36329;48.816;44.624;2022-08-06T12:17:42;4.4;;;1.1;;
49582;SDS011;36329;48.816;44.624;2022-08-06T12:20:59;5.1;;;1;;
49582;SDS011;36329;48.816;44.624;2022-08-06T12:24:02;3;;;1.2;;
49582;SDS011;36329;48.816;44.624;2022-08-06T12:27:10;3.8;;;0.9;;
49582;SDS011;36329;48.816;44.624;2022-08-06T12:30:12;3.7;;;1;;
49582;SDS011;36329;48.816;44.624;2022-08-06T12:33:14;4.1;;;0.9;;
49582;SDS011;36329;48.816;44.624;2022-08-06T12:36:25;4.2;;;0.9;;
49582;SDS011;36329;48.816;44.624;2022-08-06T12:39:27;3.6;;;0.9;;
49582;SDS011;36329;48.816;44.624;2022-08-06T12:42:45;4.4;;;1.1;;
49582;SDS011;36329;48.816;44.624;2022-08-06T12:45:46;5;;;1.3;;
49582;SDS011;36329;48.816;44.624;2022-08-06T12:48:58;4.7;;;1;;
49582;SDS011;36329;48.816;44.624;2022-08-06T12:55:16;3.1;;;1.1;;
49582;SDS011;36329;48.816;44.624;2022-08-06T12:58:19;3.5;;;1.2;;
49582;SDS011;36329;48.816;44.624;2022-08-06T13:01:24;5.7;;;0.9;;
49582;SDS011;36329;48.816;44.624;2022-08-06T13:04:28;5.9;;;0.9;;
49582;SDS011;36329;48.816;44.624;2022-08-06T13:07:30;5.2;;;1.2;;
49582;SDS011;36329;48.816;44.624;2022-08-06T13:10:39;5.5;;;1.4;;
49582;SDS011;36329;48.816;44.624;2022-08-06T13:13:50;3.6;;;1.2;;
49582;SDS011;36329;48.816;44.624;2022-08-06T13:16:57;6;;;2.1;;
49582;SDS011;36329;48.816;44.624;2022-08-06T13:20:13;3.5;;;1.5;;
49582;SDS011;36329;48.816;44.624;2022-08-06T13:23:27;3.5;;;1.4;;
49582;SDS011;36329;48.816;44.624;2022-08-06T13:26:32;4.2;;;2.1;;
49582;SDS011;36329;48.816;44.624;2022-08-06T13:33:13;2.9;;;1;;
49582;SDS011;36329;48.816;44.624;2022-08-06T13:36:16;5.1;;;1.3;;
49582;SDS011;36329;48.816;44.624;2022-08-06T13:39:28;4.8;;;2.1;;
49582;SDS011;36329;48.816;44.624;2022-08-06T13:42:31;6.9;;;2.5;;
49582;SDS011;36329;48.816;44.624;2022-08-06T13:45:33;6.4;;;3;;
49582;SDS011;36329;48.816;44.624;2022-08-06T13:48:41;3.5;;;1.5;;
49582;SDS011;36329;48.816;44.624;2022-08-06T13:51:48;4.6;;;0.9;;
49582;SDS011;36329;48.816;44.624;2022-08-06T13:54:56;4.5;;;0.9;;
49582;SDS011;36329;48.816;44.624;2022-08-06T13:58:02;3.5;;;1;;
49582;SDS011;36329;48.816;44.624;2022-08-06T14:01:05;2.4;;;0.9;;
49582;SDS011;36329;48.816;44.624;2022-08-06T14:04:06;5;;;1.2;;
49582;SDS011;36329;48.816;44.624;2022-08-06T14:07:08;3;;;1;;
49582;SDS011;36329;48.816;44.624;2022-08-06T14:10:10;2.8;;;1;;
49582;SDS011;36329;48.816;44.624;2022-08-06T14:13:12;2.8;;;1.1;;
49582;SDS011;36329;48.816;44.624;2022-08-06T14:16:13;4.4;;;1.4;;
49582;SDS011;36329;48.816;44.624;2022-08-06T14:19:15;3.3;;;1.1;;
49582;SDS011;36329;48.816;44.624;2022-08-06T14:22:17;5.2;;;1.1;;
49582;SDS011;36329;48.816;44.624;2022-08-06T14:25:18;5;;;1.2;;
49582;SDS011;36329;48.816;44.624;2022-08-06T14:28:20;6;;;1;;
49582;SDS011;36329;48.816;44.624;2022-08-06T14:31:21;4.5;;;1.4;;
49582;SDS011;36329;48.816;44.624;2022-08-06T14:34:23;4.5;;;1.3;;
49582;SDS011;36329;48.816;44.624;2022-08-06T14:37:25;3.3;;;1.4;;
49582;SDS011;36329;48.816;44.624;2022-08-06T14:40:26;4.8;;;1.1;;
49582;SDS011;36329;48.816;44.624;2022-08-06T14:43:28;5.2;;;1;;
49582;SDS011;36329;48.816;44.624;2022-08-06T14:46:30;3.9;;;1;;
49582;SDS011;36329;48.816;44.624;2022-08-06T14:49:32;2;;;1;;
49582;SDS011;36329;48.816;44.624;2022-08-06T14:52:33;4.7;;;1.1;;
49582;SDS011;36329;48.816;44.624;2022-08-06T14:55:35;6.8;;;1.4;;
49582;SDS011;36329;48.816;44.624;2022-08-06T14:58:37;3.8;;;1;;
49582;SDS011;36329;48.816;44.624;2022-08-06T15:01:44;6.1;;;1;;
49582;SDS011;36329;48.816;44.624;2022-08-06T15:04:52;5.1;;;0.9;;
49582;SDS011;36329;48.816;44.624;2022-08-06T15:07:55;4;;;1;;
49582;SDS011;36329;48.816;44.624;2022-08-06T15:10:56;5;;;1.1;;
49582;SDS011;36329;48.816;44.624;2022-08-06T15:13:58;5;;;1.2;;
49582;SDS011;36329;48.816;44.624;2022-08-06T15:17:00;2.4;;;1.1;;
49582;SDS011;36329;48.816;44.624;2022-08-06T15:20:01;3.7;;;1.1;;
49582;SDS011;36329;48.816;44.624;2022-08-06T15:23:05;6.5;;;1.3;;
49582;SDS011;36329;48.816;44.624;2022-08-06T15:26:06;5.9;;;1.2;;
49582;SDS011;36329;48.816;44.624;2022-08-06T15:29:08;6;;;1.3;;
49582;SDS011;36329;48.816;44.624;2022-08-06T15:32:10;5.5;;;1.1;;
49582;SDS011;36329;48.816;44.624;2022-08-06T15:35:13;5.5;;;1.2;;
49582;SDS011;36329;48.816;44.624;2022-08-06T15:38:16;7.6;;;1.4;;
49582;SDS011;36329;48.816;44.624;2022-08-06T15:41:18;4.2;;;1.2;;
49582;SDS011;36329;48.816;44.624;2022-08-06T15:44:20;3.4;;;1.1;;
49582;SDS011;36329;48.816;44.624;2022-08-06T15:47:22;4.4;;;1.5;;
49582;SDS011;36329;48.816;44.624;2022-08-06T15:50:24;4.8;;;1.8;;
49582;SDS011;36329;48.816;44.624;2022-08-06T15:53:25;5.4;;;1.7;;
49582;SDS011;36329;48.816;44.624;2022-08-06T15:56:28;8.1;;;2.2;;
49582;SDS011;36329;48.816;44.624;2022-08-06T15:59:30;5.8;;;2.3;;
49582;SDS011;36329;48.816;44.624;2022-08-06T16:02:32;6.2;;;2.8;;
49582;SDS011;36329;48.816;44.624;2022-08-06T16:05:35;10.3;;;3.4;;
49582;SDS011;36329;48.816;44.624;2022-08-06T16:08:37;8.1;;;3.6;;
49582;SDS011;36329;48.816;44.624;2022-08-06T16:11:39;9;;;3.8;;
49582;SDS011;36329;48.816;44.624;2022-08-06T16:14:41;8.7;;;3.9;;
49582;SDS011;36329;48.816;44.624;2022-08-06T16:17:42;10;;;4.8;;
49582;SDS011;36329;48.816;44.624;2022-08-06T16:20:44;12.3;;;5;;
49582;SDS011;36329;48.816;44.624;2022-08-06T16:23:51;13.2;;;6.5;;
49582;SDS011;36329;48.816;44.624;2022-08-06T16:26:58;19.8;;;10.9;;
49582;SDS011;36329;48.816;44.624;2022-08-06T16:30:06;22.4;;;10.8;;
49582;SDS011;36329;48.816;44.624;2022-08-06T16:33:08;21.5;;;10.4;;
49582;SDS011;36329;48.816;44.624;2022-08-06T16:36:10;17.9;;;9;;
49582;SDS011;36329;48.816;44.624;2022-08-06T16:39:17;16.3;;;8.4;;
49582;SDS011;36329;48.816;44.624;2022-08-06T16:42:23;17.9;;;8;;
49582;SDS011;36329;48.816;44.624;2022-08-06T16:45:26;14.1;;;7.3;;
49582;SDS011;36329;48.816;44.624;2022-08-06T16:48:28;15;;;7.5;;
49582;SDS011;36329;48.816;44.624;2022-08-06T16:51:29;17;;;7.6;;
49582;SDS011;36329;48.816;44.624;2022-08-06T16:54:31;16.1;;;7.5;;
49582;SDS011;36329;48.816;44.624;2022-08-06T16:57:33;15.6;;;7;;
49582;SDS011;36329;48.816;44.624;2022-08-06T17:00:34;18.4;;;8.1;;
49582;SDS011;36329;48.816;44.624;2022-08-06T17:03:37;17.4;;;7.8;;
49582;SDS011;36329;48.816;44.624;2022-08-06T17:06:39;15.8;;;7.7;;
49582;SDS011;36329;48.816;44.624;2022-08-06T17:09:40;15.1;;;7.8;;
49582;SDS011;36329;48.816;44.624;2022-08-06T17:12:42;20.7;;;8.4;;
49582;SDS011;36329;48.816;44.624;2022-08-06T17:15:50;18;;;7.8;;
49582;SDS011;36329;48.816;44.624;2022-08-06T17:18:52;21.3;;;8.2;;
49582;SDS011;36329;48.816;44.624;2022-08-06T17:21:53;20.5;;;8.3;;
49582;SDS011;36329;48.816;44.624;2022-08-06T17:24:55;22.7;;;9;;
49582;SDS011;36329;48.816;44.624;2022-08-06T17:28:04;17.2;;;7.8;;
49582;SDS011;36329;48.816;44.624;2022-08-06T17:31:06;17.8;;;8;;
49582;SDS011;36329;48.816;44.624;2022-08-06T17:34:08;20.5;;;7.4;;
49582;SDS011;36329;48.816;44.624;2022-08-06T17:37:10;14.5;;;6.1;;
49582;SDS011;36329;48.816;44.624;2022-08-06T17:40:12;15.6;;;6.8;;
49582;SDS011;36329;48.816;44.624;2022-08-06T17:43:21;14.7;;;6.8;;
49582;SDS011;36329;48.816;44.624;2022-08-06T17:46:24;13.9;;;5.1;;
49582;SDS011;36329;48.816;44.624;2022-08-06T17:49:26;19.5;;;7.9;;
49582;SDS011;36329;48.816;44.624;2022-08-06T17:52:27;15.5;;;5.6;;
49582;SDS011;36329;48.816;44.624;2022-08-06T17:55:29;16.8;;;5.8;;
49582;SDS011;36329;48.816;44.624;2022-08-06T17:58:31;13.2;;;5.5;;
49582;SDS011;36329;48.816;44.624;2022-08-06T18:01:34;10.8;;;4.8;;
49582;SDS011;36329;48.816;44.624;2022-08-06T18:04:36;15.6;;;6.5;;
49582;SDS011;36329;48.816;44.624;2022-08-06T18:07:38;10.5;;;3.9;;
49582;SDS011;36329;48.816;44.624;2022-08-06T18:10:40;11.3;;;4;;
49582;SDS011;36329;48.816;44.624;2022-08-06T18:13:42;19.4;;;5.7;;
49582;SDS011;36329;48.816;44.624;2022-08-06T18:16:43;9.4;;;3.3;;
49582;SDS011;36329;48.816;44.624;2022-08-06T18:19:45;8.4;;;3.6;;
49582;SDS011;36329;48.816;44.624;2022-08-06T18:22:47;9.5;;;3.7;;
49582;SDS011;36329;48.816;44.624;2022-08-06T18:25:49;11.1;;;3.5;;
49582;SDS011;36329;48.816;44.624;2022-08-06T18:28:58;10.2;;;3.8;;
49582;SDS011;36329;48.816;44.624;2022-08-06T18:32:00;13.9;;;3.9;;
49582;SDS011;36329;48.816;44.624;2022-08-06T18:35:02;7.7;;;3.7;;
49582;SDS011;36329;48.816;44.624;2022-08-06T18:38:09;12.1;;;4.1;;
49582;SDS011;36329;48.816;44.624;2022-08-06T18:41:11;10.7;;;3.5;;
49582;SDS011;36329;48.816;44.624;2022-08-06T18:44:13;12.3;;;5.3;;
49582;SDS011;36329;48.816;44.624;2022-08-06T18:47:14;12.2;;;4;;
49582;SDS011;36329;48.816;44.624;2022-08-06T18:50:16;10.8;;;3.2;;
49582;SDS011;36329;48.816;44.624;2022-08-06T18:53:18;10.4;;;4.6;;
49582;SDS011;36329;48.816;44.624;2022-08-06T18:56:19;13.2;;;4.8;;
49582;SDS011;36329;48.816;44.624;2022-08-06T18:59:21;14.5;;;5;;
49582;SDS011;36329;48.816;44.624;2022-08-06T19:02:23;11.5;;;3.9;;
49582;SDS011;36329;48.816;44.624;2022-08-06T19:05:25;10.7;;;3.3;;
49582;SDS011;36329;48.816;44.624;2022-08-06T19:08:26;16.7;;;3.7;;
49582;SDS011;36329;48.816;44.624;2022-08-06T19:11:28;7.1;;;3.4;;
49582;SDS011;36329;48.816;44.624;2022-08-06T19:14:29;12.3;;;5.8;;
49582;SDS011;36329;48.816;44.624;2022-08-06T19:17:31;7.3;;;3.2;;
49582;SDS011;36329;48.816;44.624;2022-08-06T19:20:33;7.3;;;2.7;;
49582;SDS011;36329;48.816;44.624;2022-08-06T19:23:35;11.8;;;3.7;;
49582;SDS011;36329;48.816;44.624;2022-08-06T19:26:36;7.8;;;3.5;;
49582;SDS011;36329;48.816;44.624;2022-08-06T19:29:38;6.7;;;2.2;;
49582;SDS011;36329;48.816;44.624;2022-08-06T19:32:40;9.5;;;3.7;;
49582;SDS011;36329;48.816;44.624;2022-08-06T19:35:43;8;;;2.3;;
49582;SDS011;36329;48.816;44.624;2022-08-06T19:38:50;10;;;3;;